Chesterfield, Illinois
Current Conditions -  °F | °C
As of 11:35 PM on Monday 26 Jan 2015 (Local Time) from K3LF Reporting Station
Overcast Overcast  
Wind Chill: 32°   Ceiling: 6500
Heat Index: 32°   Visibility: 7mi
Dew Point: 30°   Wind: 3mph
Humidity: 91%   Direction: 260°W
Pressure: 29.89"   Gusts: NA
Location:  39.26°N, 90.06°W
Report Text: K3LF 270535Z AUTO 26003KT 7SM OVC065 00/M01 A2989 RMK AO2 T00001013
Loading
Personal Weather Stations






























Interactive Weather Map New forecast layout! Learn more

10-Day Weather Forecast

Advertisements
Track Severe Weather on mobile